createdAt,value
2022-12-15T00:00:18.654Z,1.90
2022-12-15T00:03:03.993Z,1.90
2022-12-15T00:05:49.857Z,1.90
2022-12-15T00:08:35.977Z,1.90
2022-12-15T00:11:22.161Z,1.90
2022-12-15T00:14:07.710Z,2.20
2022-12-15T00:16:53.380Z,1.90
2022-12-15T00:19:38.677Z,1.90
2022-12-15T00:22:24.556Z,1.90
2022-12-15T00:25:10.126Z,1.90
2022-12-15T00:27:55.390Z,1.90
2022-12-15T00:30:41.507Z,1.90
2022-12-15T00:33:30.720Z,1.90
2022-12-15T00:36:19.642Z,1.90
2022-12-15T00:38:46.657Z,1.80
2022-12-15T00:41:15.716Z,1.80
2022-12-15T00:43:42.933Z,1.90
2022-12-15T00:46:28.862Z,1.80
2022-12-15T00:48:55.711Z,1.80
2022-12-15T00:51:22.598Z,1.80
2022-12-15T00:54:11.873Z,1.80
2022-12-15T00:57:00.266Z,1.80
2022-12-15T00:59:47.051Z,1.80
2022-12-15T01:02:32.828Z,1.80
2022-12-15T01:05:18.409Z,1.80
2022-12-15T01:08:03.921Z,1.80
2022-12-15T01:10:49.309Z,1.80
2022-12-15T01:13:34.793Z,1.90
2022-12-15T01:16:20.269Z,1.90
2022-12-15T01:19:05.728Z,1.80
2022-12-15T01:21:32.551Z,1.80
2022-12-15T01:23:59.312Z,1.80
2022-12-15T01:26:26.052Z,1.70
2022-12-15T01:28:52.878Z,1.80
2022-12-15T01:31:19.766Z,1.80
2022-12-15T01:33:46.549Z,1.80
2022-12-15T01:36:13.655Z,1.80
2022-12-15T01:38:40.416Z,2.00
2022-12-15T01:41:10.840Z,1.80
2022-12-15T01:43:39.261Z,1.80
2022-12-15T01:46:07.893Z,1.80
2022-12-15T01:48:36.147Z,1.60
2022-12-15T01:51:12.226Z,1.90
2022-12-15T01:53:59.189Z,1.80
2022-12-15T01:56:30.089Z,1.80
2022-12-15T01:59:02.458Z,1.80
2022-12-15T02:01:30.023Z,1.80
2022-12-15T02:03:56.854Z,1.80
2022-12-15T02:06:25.799Z,1.80
2022-12-15T02:08:56.365Z,1.80
2022-12-15T02:12:10.976Z,1.80
2022-12-15T02:15:04.642Z,1.80
2022-12-15T02:17:42.111Z,1.80
2022-12-15T02:20:08.812Z,1.80
2022-12-15T02:22:38.580Z,1.80
2022-12-15T02:25:11.576Z,1.80
2022-12-15T02:27:59.203Z,1.80
2022-12-15T02:30:38.146Z,1.80
2022-12-15T02:33:13.307Z,1.80
2022-12-15T02:36:09.991Z,1.80
2022-12-15T02:38:41.566Z,1.80
2022-12-15T02:41:31.225Z,1.80
2022-12-15T02:43:58.072Z,1.80
2022-12-15T02:46:36.968Z,1.80
2022-12-15T02:49:14.800Z,1.80
2022-12-15T02:51:56.352Z,1.80
2022-12-15T02:54:38.363Z,1.80
2022-12-15T02:57:23.640Z,1.80
2022-12-15T03:00:07.007Z,1.80
2022-12-15T03:02:35.188Z,1.70
2022-12-15T03:05:02.045Z,1.70
2022-12-15T03:07:28.838Z,1.80
2022-12-15T03:09:57.654Z,1.80
2022-12-15T03:12:24.815Z,1.80
2022-12-15T03:14:51.520Z,1.80
2022-12-15T03:17:18.322Z,1.70
2022-12-15T03:19:45.200Z,1.80
2022-12-15T03:22:12.121Z,1.80
2022-12-15T03:24:39.013Z,1.70
2022-12-15T03:27:05.734Z,1.70
2022-12-15T03:29:32.587Z,1.70
2022-12-15T03:31:59.447Z,1.80
2022-12-15T03:34:26.317Z,1.70
2022-12-15T03:36:53.653Z,1.80
2022-12-15T03:39:20.835Z,1.70
2022-12-15T03:41:47.577Z,1.80
2022-12-15T03:44:14.272Z,1.70
2022-12-15T03:46:41.169Z,1.80
2022-12-15T03:49:08.012Z,1.70
2022-12-15T03:51:34.808Z,1.70
2022-12-15T03:54:01.774Z,1.70
2022-12-15T03:56:28.586Z,1.70
2022-12-15T03:58:55.714Z,1.70
2022-12-15T04:01:25.476Z,1.70
2022-12-15T04:03:55.568Z,1.70
2022-12-15T04:06:27.080Z,1.70
2022-12-15T04:08:54.065Z,1.70
2022-12-15T04:11:21.000Z,2.50
2022-12-15T04:13:47.964Z,1.70
2022-12-15T04:16:19.527Z,1.70
2022-12-15T04:18:47.079Z,1.70
2022-12-15T04:21:13.899Z,1.70
2022-12-15T04:23:59.603Z,1.70
2022-12-15T04:26:45.017Z,1.70
2022-12-15T04:29:30.187Z,1.70
2022-12-15T04:32:15.928Z,1.70
2022-12-15T04:35:02.852Z,1.70
2022-12-15T04:37:50.401Z,1.70
2022-12-15T04:40:36.012Z,1.70
2022-12-15T04:43:21.341Z,1.70
2022-12-15T04:46:06.564Z,1.70
2022-12-15T04:48:51.768Z,1.70
2022-12-15T04:51:36.929Z,1.70
2022-12-15T04:54:22.202Z,1.70
2022-12-15T04:57:07.398Z,1.70
2022-12-15T04:59:52.766Z,1.70
2022-12-15T05:02:38.190Z,1.60
2022-12-15T05:05:23.731Z,1.70
2022-12-15T05:08:08.916Z,1.70
2022-12-15T05:10:54.392Z,1.70
2022-12-15T05:13:39.817Z,1.70
2022-12-15T05:16:24.985Z,1.70
2022-12-15T05:19:10.303Z,1.70
2022-12-15T05:21:55.576Z,1.70
2022-12-15T05:24:40.990Z,1.70
2022-12-15T05:27:26.243Z,1.70
2022-12-15T05:30:11.449Z,1.70
2022-12-15T05:32:38.087Z,1.70
2022-12-15T05:35:05.424Z,1.70
2022-12-15T05:37:32.041Z,1.70
2022-12-15T05:39:58.694Z,1.70
2022-12-15T05:42:25.445Z,1.70
2022-12-15T05:44:52.073Z,1.70
2022-12-15T05:47:18.717Z,1.70
2022-12-15T05:49:45.375Z,1.70
2022-12-15T05:52:12.306Z,1.70
2022-12-15T05:54:38.975Z,1.70
2022-12-15T05:57:05.614Z,1.70
2022-12-15T05:59:32.249Z,1.70
2022-12-15T06:01:58.946Z,1.70
2022-12-15T06:04:25.872Z,1.70
2022-12-15T06:06:52.683Z,1.70
2022-12-15T06:09:19.376Z,1.70
2022-12-15T06:11:46.530Z,1.70
2022-12-15T06:14:13.230Z,1.70
2022-12-15T06:16:50.377Z,1.70
2022-12-15T06:19:18.413Z,1.70
2022-12-15T06:21:45.047Z,1.70
2022-12-15T06:24:11.801Z,1.70
2022-12-15T06:26:39.870Z,1.70
2022-12-15T06:29:08.687Z,1.70
2022-12-15T06:31:37.056Z,1.70
2022-12-15T06:34:06.142Z,1.70
2022-12-15T06:36:32.949Z,2.30
2022-12-15T06:39:00.942Z,2.70
2022-12-15T06:41:30.368Z,1.70
2022-12-15T06:43:57.483Z,1.70
2022-12-15T06:46:25.495Z,1.60
2022-12-15T06:48:53.268Z,1.70
2022-12-15T06:51:20.629Z,1.70
2022-12-15T06:53:53.686Z,1.70
2022-12-15T06:56:33.703Z,1.70
2022-12-15T06:59:02.291Z,1.70
2022-12-15T07:01:29.564Z,1.40
2022-12-15T07:03:57.024Z,2.30
2022-12-15T07:06:23.962Z,1.60
2022-12-15T07:08:52.887Z,1.90
2022-12-15T07:11:21.043Z,1.60
2022-12-15T07:13:54.384Z,1.60
2022-12-15T07:16:22.724Z,1.70
2022-12-15T07:18:49.536Z,1.60
2022-12-15T07:21:16.965Z,1.60
2022-12-15T07:24:00.804Z,1.60
2022-12-15T07:26:28.469Z,1.60
2022-12-15T07:28:56.025Z,1.60
2022-12-15T07:31:28.746Z,1.60
2022-12-15T07:33:56.937Z,1.70
2022-12-15T07:36:28.901Z,1.60
2022-12-15T07:39:03.350Z,1.60
2022-12-15T07:41:30.420Z,1.80
2022-12-15T07:43:58.117Z,1.60
2022-12-15T07:46:30.966Z,1.30
2022-12-15T07:48:59.374Z,2.80
2022-12-15T07:51:26.179Z,1.20
2022-12-15T07:53:53.015Z,1.60
2022-12-15T07:56:22.560Z,1.60
2022-12-15T07:58:49.551Z,1.60
2022-12-15T08:01:20.155Z,1.50
2022-12-15T08:04:03.847Z,2.70
2022-12-15T08:06:41.930Z,1.70
2022-12-15T08:09:09.665Z,1.10
2022-12-15T08:11:36.461Z,1.00
2022-12-15T08:14:04.980Z,1.70
2022-12-15T08:16:34.794Z,1.60
2022-12-15T08:19:01.906Z,1.70
2022-12-15T08:21:37.581Z,1.60
2022-12-15T08:24:04.691Z,1.60
2022-12-15T08:26:31.877Z,1.70
2022-12-15T08:29:40.582Z,3.10
2022-12-15T08:31:52.060Z,1.80
2022-12-15T08:34:21.382Z,3.60
2022-12-15T08:36:48.065Z,1.60
2022-12-15T08:39:14.839Z,2.30
2022-12-15T08:41:41.690Z,1.70
2022-12-15T08:44:08.726Z,1.60
2022-12-15T08:46:36.897Z,1.70
2022-12-15T08:49:03.961Z,1.60
2022-12-15T08:51:32.676Z,1.70
2022-12-15T08:54:00.533Z,1.80
2022-12-15T08:56:27.927Z,1.70
2022-12-15T08:58:59.068Z,1.70
2022-12-15T09:01:27.345Z,3.10
2022-12-15T09:03:56.451Z,1.70
2022-12-15T09:06:29.689Z,1.80
2022-12-15T09:09:01.434Z,1.80
2022-12-15T09:11:29.186Z,1.70
2022-12-15T09:14:29.584Z,1.70
2022-12-15T09:16:56.731Z,0.10
2022-12-15T09:19:26.453Z,1.10
2022-12-15T09:21:59.352Z,-0.10
2022-12-15T09:25:29.026Z,2.10
2022-12-15T09:28:07.698Z,2.00
2022-12-15T09:33:48.687Z,3.40
2022-12-15T09:36:29.319Z,4.30
2022-12-15T09:42:06.177Z,1.90
2022-12-15T09:44:39.082Z,2.00
2022-12-15T09:47:40.869Z,0.50
2022-12-15T09:50:45.697Z,2.20
2022-12-15T09:53:52.920Z,3.20
2022-12-15T09:56:24.267Z,2.00
2022-12-15T09:59:37.591Z,0.50
2022-12-15T10:02:04.586Z,2.20
2022-12-15T10:05:11.803Z,3.80
2022-12-15T10:07:46.611Z,2.00
2022-12-15T10:10:39.894Z,2.80
2022-12-15T10:13:23.491Z,2.50
2022-12-15T10:15:59.629Z,2.20
2022-12-15T10:18:44.664Z,4.80
2022-12-15T10:21:32.481Z,3.10
2022-12-15T10:24:17.629Z,2.30
2022-12-15T10:27:02.957Z,4.10
2022-12-15T10:32:51.103Z,4.10
2022-12-15T10:35:42.242Z,2.30
2022-12-15T10:38:34.552Z,2.50
2022-12-15T10:41:05.783Z,2.40
2022-12-15T10:43:44.313Z,2.40
2022-12-15T10:46:15.044Z,2.40
2022-12-15T10:48:48.849Z,2.40
2022-12-15T10:51:24.546Z,2.40
2022-12-15T10:54:10.252Z,2.40
2022-12-15T10:56:50.160Z,2.40
2022-12-15T10:59:32.083Z,1.70
2022-12-15T11:05:15.504Z,2.50
2022-12-15T11:08:14.989Z,2.50
2022-12-15T11:11:12.897Z,2.50
2022-12-15T11:17:22.875Z,3.20
2022-12-15T11:22:53.478Z,2.60
2022-12-15T11:25:26.070Z,2.60
2022-12-15T11:27:55.977Z,2.60
2022-12-15T11:30:46.522Z,2.60
2022-12-15T11:36:46.917Z,2.80
2022-12-15T11:39:36.980Z,2.70
2022-12-15T11:42:15.675Z,2.70
2022-12-15T11:44:49.405Z,2.70
2022-12-15T11:47:44.832Z,2.70
2022-12-15T11:50:26.572Z,2.70
2022-12-15T11:53:29.269Z,2.80
2022-12-15T11:56:21.728Z,2.80
2022-12-15T11:59:22.330Z,2.80
2022-12-15T12:02:11.340Z,2.80
2022-12-15T12:05:15.542Z,2.80
2022-12-15T12:07:46.300Z,2.80
2022-12-15T12:10:24.735Z,2.90
2022-12-15T12:13:17.957Z,2.90
2022-12-15T12:15:51.390Z,2.90
2022-12-15T12:18:19.710Z,2.90
2022-12-15T12:20:50.788Z,2.90
2022-12-15T12:23:47.151Z,3.00
2022-12-15T12:26:35.964Z,3.00
2022-12-15T12:29:44.680Z,3.00
2022-12-15T12:32:37.307Z,3.00
2022-12-15T12:38:13.774Z,3.00
2022-12-15T12:40:40.427Z,3.10
2022-12-15T12:45:59.724Z,3.10
2022-12-15T12:48:32.893Z,3.10
2022-12-15T12:51:22.973Z,3.10
2022-12-15T12:53:50.359Z,3.10
2022-12-15T12:56:37.797Z,3.10
2022-12-15T12:59:29.487Z,3.20
2022-12-15T13:01:58.010Z,3.20
2022-12-15T13:04:30.823Z,3.20
2022-12-15T13:06:59.444Z,3.30
2022-12-15T13:09:42.938Z,3.30
2022-12-15T13:12:51.304Z,3.30
2022-12-15T13:15:27.615Z,3.30
2022-12-15T13:18:07.724Z,3.30
2022-12-15T13:20:36.919Z,3.40
2022-12-15T13:23:22.007Z,3.40
2022-12-15T13:26:00.290Z,3.40
2022-12-15T13:28:36.117Z,3.40
2022-12-15T13:31:18.900Z,3.50
2022-12-15T13:33:54.682Z,3.40
2022-12-15T13:36:39.888Z,3.50
2022-12-15T13:39:12.592Z,3.50
2022-12-15T13:44:54.686Z,3.60
2022-12-15T13:47:29.291Z,3.60
2022-12-15T13:50:10.913Z,3.60
2022-12-15T13:56:07.087Z,3.60
2022-12-15T13:58:44.602Z,3.70
2022-12-15T14:01:31.838Z,3.60
2022-12-15T14:04:16.098Z,3.60
2022-12-15T14:06:52.906Z,3.70
2022-12-15T14:09:23.117Z,3.70
2022-12-15T14:14:42.742Z,3.80
2022-12-15T14:17:15.303Z,3.80
2022-12-15T14:19:44.262Z,3.80
2022-12-15T14:22:28.168Z,3.80
2022-12-15T14:25:09.121Z,3.70
2022-12-15T14:27:35.901Z,3.70
2022-12-15T14:30:26.647Z,3.80
2022-12-15T14:33:03.052Z,3.80
2022-12-15T14:35:33.813Z,3.70
2022-12-15T14:38:02.631Z,3.80
2022-12-15T14:40:30.227Z,3.70
2022-12-15T14:42:57.146Z,3.80
2022-12-15T14:45:26.593Z,3.70
2022-12-15T14:48:39.056Z,3.70
2022-12-15T14:50:48.611Z,3.70
2022-12-15T14:53:17.913Z,3.70
2022-12-15T14:55:44.790Z,3.70
2022-12-15T14:58:34.943Z,3.70
2022-12-15T15:01:03.519Z,3.70
2022-12-15T15:03:04.401Z,2.20
2022-12-15T15:03:06.810Z,2.40
2022-12-15T15:03:09.171Z,2.60
2022-12-15T15:03:09.975Z,3.10
2022-12-15T15:03:10.853Z,3.00
2022-12-15T15:03:39.185Z,3.60
2022-12-15T15:06:16.972Z,3.60
2022-12-15T15:08:46.379Z,3.60
2022-12-15T15:11:30.002Z,3.50
2022-12-15T15:13:59.554Z,4.20
2022-12-15T15:16:26.652Z,3.60
2022-12-15T15:18:55.293Z,3.60
2022-12-15T15:21:27.873Z,3.70
2022-12-15T15:24:22.462Z,3.80
2022-12-15T15:26:49.236Z,3.60
2022-12-15T15:29:38.434Z,3.70
2022-12-15T15:32:20.149Z,3.70
2022-12-15T15:34:47.287Z,3.70
2022-12-15T15:37:24.715Z,3.70
2022-12-15T15:39:55.252Z,3.70
2022-12-15T15:42:25.491Z,3.70
2022-12-15T15:44:55.856Z,3.70
2022-12-15T15:47:26.094Z,3.60
2022-12-15T15:49:54.829Z,3.60
2022-12-15T15:52:21.947Z,3.60
2022-12-15T15:54:48.605Z,3.60
2022-12-15T15:57:16.676Z,3.50
2022-12-15T15:59:44.242Z,3.50
2022-12-15T16:02:13.451Z,3.60
2022-12-15T16:04:42.342Z,3.60
2022-12-15T16:07:21.285Z,3.50
2022-12-15T16:09:50.802Z,3.40
2022-12-15T16:12:25.607Z,3.50
2022-12-15T16:14:52.290Z,3.50
2022-12-15T16:17:19.019Z,3.50
2022-12-15T16:19:45.928Z,3.50
2022-12-15T16:22:16.384Z,3.40
2022-12-15T16:24:43.623Z,3.40
2022-12-15T16:27:12.171Z,3.40
2022-12-15T16:29:39.525Z,3.40
2022-12-15T16:32:07.037Z,3.40
2022-12-15T16:34:33.724Z,3.40
2022-12-15T16:37:00.414Z,3.40
2022-12-15T16:39:29.154Z,3.40
2022-12-15T16:41:56.612Z,3.40
2022-12-15T16:44:24.793Z,3.40
2022-12-15T16:46:51.544Z,3.40
2022-12-15T16:49:18.289Z,3.30
2022-12-15T16:51:50.947Z,3.30
2022-12-15T16:54:21.586Z,3.20
2022-12-15T16:56:48.475Z,3.20
2022-12-15T16:59:32.560Z,3.40
2022-12-15T17:02:01.062Z,3.20
2022-12-15T17:04:27.960Z,3.20
2022-12-15T17:06:55.035Z,3.20
2022-12-15T17:09:23.598Z,3.20
2022-12-15T17:11:51.023Z,3.20
2022-12-15T17:14:17.744Z,3.20
2022-12-15T17:16:44.483Z,3.20
2022-12-15T17:19:13.857Z,3.20
2022-12-15T17:21:48.494Z,3.10
2022-12-15T17:24:17.185Z,3.20
2022-12-15T17:26:44.551Z,3.10
2022-12-15T17:29:30.785Z,3.10
2022-12-15T17:31:57.516Z,3.10
2022-12-15T17:34:32.720Z,3.10
2022-12-15T17:37:02.272Z,3.10
2022-12-15T17:39:29.372Z,3.10
2022-12-15T17:42:01.387Z,3.10
2022-12-15T17:44:35.606Z,3.10
2022-12-15T17:47:05.325Z,3.10
2022-12-15T17:49:36.023Z,3.10
2022-12-15T17:52:09.074Z,3.10
2022-12-15T17:54:35.704Z,3.10
2022-12-15T17:57:02.375Z,3.10
2022-12-15T17:59:29.068Z,3.10
2022-12-15T18:01:58.537Z,3.10
2022-12-15T18:04:25.354Z,3.10
2022-12-15T18:06:56.648Z,3.10
2022-12-15T18:09:26.618Z,3.10
2022-12-15T18:11:53.637Z,3.10
2022-12-15T18:14:22.774Z,3.00
2022-12-15T18:16:49.683Z,3.10
2022-12-15T18:19:16.387Z,3.10
2022-12-15T18:21:43.096Z,3.10
2022-12-15T18:24:13.979Z,3.10
2022-12-15T18:26:40.732Z,3.10
2022-12-15T18:29:17.500Z,3.10
2022-12-15T18:31:48.399Z,3.10
2022-12-15T18:34:21.017Z,3.10
2022-12-15T18:36:47.892Z,3.10
2022-12-15T18:39:19.560Z,3.10
2022-12-15T18:41:46.638Z,2.70
2022-12-15T18:44:25.234Z,3.10
2022-12-15T18:46:52.296Z,3.10
2022-12-15T18:49:19.428Z,3.00
2022-12-15T18:51:46.904Z,3.00
2022-12-15T18:54:20.334Z,3.00
2022-12-15T18:56:47.281Z,3.10
2022-12-15T18:59:15.966Z,3.00
2022-12-15T19:01:43.906Z,3.10
2022-12-15T19:04:10.824Z,3.10
2022-12-15T19:06:38.280Z,3.00
2022-12-15T19:09:17.751Z,3.00
2022-12-15T19:12:05.605Z,3.00
2022-12-15T19:14:41.135Z,3.00
2022-12-15T19:17:31.365Z,3.00
2022-12-15T19:20:16.509Z,3.10
2022-12-15T19:22:44.127Z,3.10
2022-12-15T19:25:15.002Z,3.10
2022-12-15T19:27:41.774Z,3.10
2022-12-15T19:30:19.462Z,3.10
2022-12-15T19:32:46.103Z,3.10
2022-12-15T19:35:12.773Z,3.10
2022-12-15T19:37:41.613Z,3.10
2022-12-15T19:40:11.232Z,3.00
2022-12-15T19:42:37.917Z,3.00
2022-12-15T19:45:22.655Z,3.10
2022-12-15T19:47:49.348Z,3.10
2022-12-15T19:50:22.378Z,3.10
2022-12-15T19:52:53.059Z,3.00
2022-12-15T19:55:26.651Z,3.10
2022-12-15T19:57:53.452Z,3.10
2022-12-15T20:00:21.931Z,3.10
2022-12-15T20:02:54.495Z,3.10
2022-12-15T20:05:22.985Z,3.10
2022-12-15T20:07:51.455Z,3.10
2022-12-15T20:10:25.928Z,3.00
2022-12-15T20:12:57.002Z,3.00
2022-12-15T20:15:25.822Z,3.00
2022-12-15T20:17:56.482Z,3.00
2022-12-15T20:20:24.726Z,3.00
2022-12-15T20:22:54.745Z,3.10
2022-12-15T20:25:25.430Z,3.10
2022-12-15T20:27:52.169Z,3.10
2022-12-15T20:30:25.086Z,3.00
2022-12-15T20:32:51.873Z,3.00
2022-12-15T20:35:20.345Z,3.00
2022-12-15T20:37:47.534Z,3.00
2022-12-15T20:40:22.906Z,3.00
2022-12-15T20:42:51.303Z,3.00
2022-12-15T20:45:21.608Z,3.00
2022-12-15T20:47:50.060Z,3.00
2022-12-15T20:50:41.197Z,3.00
2022-12-15T20:53:34.691Z,3.00
2022-12-15T20:56:01.528Z,3.00
2022-12-15T20:58:32.879Z,3.00
2022-12-15T21:01:00.388Z,4.40
2022-12-15T21:03:29.886Z,3.00
2022-12-15T21:05:57.979Z,3.00
2022-12-15T21:08:32.187Z,3.00
2022-12-15T21:11:14.708Z,2.90
2022-12-15T21:13:41.774Z,3.00
2022-12-15T21:16:15.582Z,2.90
2022-12-15T21:19:19.198Z,2.90
2022-12-15T21:21:37.528Z,2.90
2022-12-15T21:24:22.843Z,2.90
2022-12-15T21:26:50.842Z,2.90
2022-12-15T21:29:23.932Z,2.90
2022-12-15T21:31:51.404Z,2.90
2022-12-15T21:34:18.044Z,2.90
2022-12-15T21:36:47.778Z,2.90
2022-12-15T21:39:29.261Z,2.90
2022-12-15T21:42:02.643Z,2.90
2022-12-15T21:44:29.435Z,2.90
2022-12-15T21:46:56.097Z,2.90
2022-12-15T21:49:23.361Z,2.90
2022-12-15T21:51:58.344Z,2.90
2022-12-15T21:54:30.989Z,2.90
2022-12-15T21:56:59.228Z,2.90
2022-12-15T21:59:29.084Z,2.90
2022-12-15T22:01:56.179Z,2.90
2022-12-15T22:04:30.505Z,2.80
2022-12-15T22:06:57.170Z,2.80
2022-12-15T22:09:23.866Z,2.80
2022-12-15T22:11:53.762Z,2.80
2022-12-15T22:14:30.558Z,2.80
2022-12-15T22:17:07.865Z,2.90
2022-12-15T22:19:34.577Z,4.30
2022-12-15T22:22:01.640Z,4.30
2022-12-15T22:24:34.087Z,2.80
2022-12-15T22:27:00.973Z,4.90
2022-12-15T22:29:31.786Z,4.50
2022-12-15T22:31:58.584Z,4.20
2022-12-15T22:34:27.129Z,3.90
2022-12-15T22:36:54.978Z,2.80
2022-12-15T22:39:22.016Z,2.40
2022-12-15T22:41:56.448Z,2.90
2022-12-15T22:44:29.650Z,4.20
2022-12-15T22:46:59.252Z,4.80
2022-12-15T22:49:41.072Z,1.90
2022-12-15T23:08:08.275Z,2.80
2022-12-15T23:10:53.808Z,2.20
2022-12-15T23:13:21.481Z,4.40
2022-12-15T23:16:07.306Z,4.40
2022-12-15T23:18:34.055Z,4.20
2022-12-15T23:21:01.595Z,2.70
2022-12-15T23:23:31.295Z,2.50
2022-12-15T23:25:58.517Z,2.70
2022-12-15T23:28:25.562Z,2.70
2022-12-15T23:30:52.851Z,2.70
2022-12-15T23:33:19.774Z,2.70
2022-12-15T23:35:47.079Z,2.70
2022-12-15T23:38:14.168Z,2.60
2022-12-15T23:40:49.576Z,2.60
2022-12-15T23:43:19.987Z,2.60
2022-12-15T23:45:54.629Z,2.60
2022-12-15T23:48:21.242Z,2.60
2022-12-15T23:50:47.894Z,2.60
2022-12-15T23:53:14.550Z,2.60
2022-12-15T23:55:41.169Z,2.60
2022-12-15T23:58:07.863Z,2.60
